sensor_id;sensor_type;location;lat;lon;timestamp;temperature;humidity
4727;DHT22;2377;51.734;8.950;2023-04-24T00:01:09;11.80;1.00
4727;DHT22;2377;51.734;8.950;2023-04-24T00:03:38;11.80;1.00
4727;DHT22;2377;51.734;8.950;2023-04-24T00:06:07;11.70;1.00
4727;DHT22;2377;51.734;8.950;2023-04-24T00:08:34;11.70;1.00
4727;DHT22;2377;51.734;8.950;2023-04-24T00:11:01;11.70;1.00
4727;DHT22;2377;51.734;8.950;2023-04-24T00:13:28;11.70;1.00
4727;DHT22;2377;51.734;8.950;2023-04-24T00:15:55;11.60;1.00
4727;DHT22;2377;51.734;8.950;2023-04-24T00:18:22;11.60;1.80
4727;DHT22;2377;51.734;8.950;2023-04-24T00:20:49;11.60;2.60
4727;DHT22;2377;51.734;8.950;2023-04-24T00:23:17;11.50;1.00
4727;DHT22;2377;51.734;8.950;2023-04-24T00:25:44;11.50;1.00
4727;DHT22;2377;51.734;8.950;2023-04-24T00:28:11;11.40;1.00
4727;DHT22;2377;51.734;8.950;2023-04-24T00:30:38;11.40;1.00
4727;DHT22;2377;51.734;8.950;2023-04-24T00:33:06;11.30;1.00
4727;DHT22;2377;51.734;8.950;2023-04-24T00:35:33;11.30;1.00
4727;DHT22;2377;51.734;8.950;2023-04-24T00:38:00;11.30;1.00
4727;DHT22;2377;51.734;8.950;2023-04-24T00:40:28;11.30;1.00
4727;DHT22;2377;51.734;8.950;2023-04-24T00:42:56;11.20;1.00
4727;DHT22;2377;51.734;8.950;2023-04-24T00:45:23;11.10;1.00
4727;DHT22;2377;51.734;8.950;2023-04-24T00:47:52;11.20;1.00
4727;DHT22;2377;51.734;8.950;2023-04-24T00:50:20;11.20;1.00
4727;DHT22;2377;51.734;8.950;2023-04-24T00:52:48;11.10;1.00
4727;DHT22;2377;51.734;8.950;2023-04-24T00:55:15;11.10;1.00
4727;DHT22;2377;51.734;8.950;2023-04-24T00:57:43;11.10;1.00
4727;DHT22;2377;51.734;8.950;2023-04-24T01:00:12;11.00;1.00
4727;DHT22;2377;51.734;8.950;2023-04-24T01:02:41;11.00;1.00
4727;DHT22;2377;51.734;8.950;2023-04-24T01:05:10;11.00;1.00
4727;DHT22;2377;51.734;8.950;2023-04-24T01:07:39;10.90;1.00
4727;DHT22;2377;51.734;8.950;2023-04-24T01:10:10;10.90;1.00
4727;DHT22;2377;51.734;8.950;2023-04-24T01:12:37;10.90;1.00
4727;DHT22;2377;51.734;8.950;2023-04-24T01:15:08;10.90;1.00
4727;DHT22;2377;51.734;8.950;2023-04-24T01:17:36;10.90;1.00
4727;DHT22;2377;51.734;8.950;2023-04-24T01:20:04;10.80;1.00
4727;DHT22;2377;51.734;8.950;2023-04-24T01:22:34;10.80;1.00
4727;DHT22;2377;51.734;8.950;2023-04-24T01:25:01;10.80;5.60
4727;DHT22;2377;51.734;8.950;2023-04-24T01:27:29;10.80;1.00
4727;DHT22;2377;51.734;8.950;2023-04-24T01:29:58;10.90;1.00
4727;DHT22;2377;51.734;8.950;2023-04-24T01:32:26;11.00;1.00
4727;DHT22;2377;51.734;8.950;2023-04-24T01:34:54;10.90;1.00
4727;DHT22;2377;51.734;8.950;2023-04-24T01:37:21;10.90;1.00
4727;DHT22;2377;51.734;8.950;2023-04-24T01:39:50;10.90;1.00
4727;DHT22;2377;51.734;8.950;2023-04-24T01:42:17;11.00;1.00
4727;DHT22;2377;51.734;8.950;2023-04-24T01:44:44;11.00;1.00
4727;DHT22;2377;51.734;8.950;2023-04-24T01:47:12;11.00;1.00
4727;DHT22;2377;51.734;8.950;2023-04-24T01:49:40;11.10;1.00
4727;DHT22;2377;51.734;8.950;2023-04-24T01:52:06;11.10;1.00
4727;DHT22;2377;51.734;8.950;2023-04-24T01:54:34;11.00;1.00
4727;DHT22;2377;51.734;8.950;2023-04-24T01:57:02;11.00;1.00
4727;DHT22;2377;51.734;8.950;2023-04-24T01:59:30;11.00;1.00
4727;DHT22;2377;51.734;8.950;2023-04-24T02:01:59;11.10;1.00
4727;DHT22;2377;51.734;8.950;2023-04-24T02:04:26;11.10;1.00
4727;DHT22;2377;51.734;8.950;2023-04-24T02:06:53;11.00;1.00
4727;DHT22;2377;51.734;8.950;2023-04-24T02:09:20;11.00;1.00
4727;DHT22;2377;51.734;8.950;2023-04-24T02:11:47;11.00;1.00
4727;DHT22;2377;51.734;8.950;2023-04-24T02:14:16;11.00;1.00
4727;DHT22;2377;51.734;8.950;2023-04-24T02:16:42;11.00;1.00
4727;DHT22;2377;51.734;8.950;2023-04-24T02:19:10;11.00;1.00
4727;DHT22;2377;51.734;8.950;2023-04-24T02:21:37;10.90;1.00
4727;DHT22;2377;51.734;8.950;2023-04-24T02:24:04;10.80;1.00
4727;DHT22;2377;51.734;8.950;2023-04-24T02:26:31;10.80;1.00
4727;DHT22;2377;51.734;8.950;2023-04-24T02:28:58;10.80;1.00
4727;DHT22;2377;51.734;8.950;2023-04-24T02:31:26;10.80;1.70
4727;DHT22;2377;51.734;8.950;2023-04-24T02:33:53;10.80;3.40
4727;DHT22;2377;51.734;8.950;2023-04-24T02:36:20;10.80;5.00
4727;DHT22;2377;51.734;8.950;2023-04-24T02:38:47;10.80;2.40
4727;DHT22;2377;51.734;8.950;2023-04-24T02:41:14;10.80;5.80
4727;DHT22;2377;51.734;8.950;2023-04-24T02:43:41;10.80;5.00
4727;DHT22;2377;51.734;8.950;2023-04-24T02:46:08;10.80;6.20
4727;DHT22;2377;51.734;8.950;2023-04-24T02:48:36;10.80;4.90
4727;DHT22;2377;51.734;8.950;2023-04-24T02:51:03;10.80;13.60
4727;DHT22;2377;51.734;8.950;2023-04-24T02:53:31;10.80;13.80
4727;DHT22;2377;51.734;8.950;2023-04-24T02:55:59;10.80;13.90
4727;DHT22;2377;51.734;8.950;2023-04-24T02:58:26;10.80;17.60
4727;DHT22;2377;51.734;8.950;2023-04-24T03:00:53;10.80;32.10
4727;DHT22;2377;51.734;8.950;2023-04-24T03:03:21;10.80;25.10
4727;DHT22;2377;51.734;8.950;2023-04-24T03:05:49;10.80;24.80
4727;DHT22;2377;51.734;8.950;2023-04-24T03:08:16;10.80;40.40
4727;DHT22;2377;51.734;8.950;2023-04-24T03:10:43;10.80;32.30
4727;DHT22;2377;51.734;8.950;2023-04-24T03:13:10;10.80;32.40
4727;DHT22;2377;51.734;8.950;2023-04-24T03:15:37;10.80;36.90
4727;DHT22;2377;51.734;8.950;2023-04-24T03:18:04;10.80;34.80
4727;DHT22;2377;51.734;8.950;2023-04-24T03:20:31;10.80;43.50
4727;DHT22;2377;51.734;8.950;2023-04-24T03:22:59;10.80;43.80
4727;DHT22;2377;51.734;8.950;2023-04-24T03:25:26;10.80;50.60
4727;DHT22;2377;51.734;8.950;2023-04-24T03:27:53;10.80;52.10
4727;DHT22;2377;51.734;8.950;2023-04-24T03:30:20;10.80;43.80
4727;DHT22;2377;51.734;8.950;2023-04-24T03:32:47;10.90;49.60
4727;DHT22;2377;51.734;8.950;2023-04-24T03:35:14;10.80;51.80
4727;DHT22;2377;51.734;8.950;2023-04-24T03:37:41;10.80;53.80
4727;DHT22;2377;51.734;8.950;2023-04-24T03:40:10;10.90;57.30
4727;DHT22;2377;51.734;8.950;2023-04-24T03:42:37;10.90;63.00
4727;DHT22;2377;51.734;8.950;2023-04-24T03:45:05;10.90;74.10
4727;DHT22;2377;51.734;8.950;2023-04-24T03:47:33;10.90;68.90
4727;DHT22;2377;51.734;8.950;2023-04-24T03:50:00;10.80;99.90
4727;DHT22;2377;51.734;8.950;2023-04-24T03:52:27;10.80;99.90
4727;DHT22;2377;51.734;8.950;2023-04-24T03:54:54;10.90;87.50
4727;DHT22;2377;51.734;8.950;2023-04-24T03:57:22;10.90;78.30
4727;DHT22;2377;51.734;8.950;2023-04-24T03:59:49;10.90;86.00
4727;DHT22;2377;51.734;8.950;2023-04-24T04:02:16;10.90;82.60
4727;DHT22;2377;51.734;8.950;2023-04-24T04:04:43;10.90;83.60
4727;DHT22;2377;51.734;8.950;2023-04-24T04:07:10;10.90;88.20
4727;DHT22;2377;51.734;8.950;2023-04-24T04:09:38;10.90;98.30
4727;DHT22;2377;51.734;8.950;2023-04-24T04:12:05;10.90;86.40
4727;DHT22;2377;51.734;8.950;2023-04-24T04:14:33;10.90;91.90
4727;DHT22;2377;51.734;8.950;2023-04-24T04:17:00;10.90;91.70
4727;DHT22;2377;51.734;8.950;2023-04-24T04:19:27;10.90;95.40
4727;DHT22;2377;51.734;8.950;2023-04-24T04:21:54;10.90;83.00
4727;DHT22;2377;51.734;8.950;2023-04-24T04:24:21;10.90;90.60
4727;DHT22;2377;51.734;8.950;2023-04-24T04:26:49;10.90;98.20
4727;DHT22;2377;51.734;8.950;2023-04-24T04:29:17;10.90;99.90
4727;DHT22;2377;51.734;8.950;2023-04-24T04:31:46;10.80;99.90
4727;DHT22;2377;51.734;8.950;2023-04-24T04:34:13;10.80;99.90
4727;DHT22;2377;51.734;8.950;2023-04-24T04:36:40;10.80;99.90
4727;DHT22;2377;51.734;8.950;2023-04-24T04:39:09;10.80;99.90
4727;DHT22;2377;51.734;8.950;2023-04-24T04:41:35;10.80;99.90
4727;DHT22;2377;51.734;8.950;2023-04-24T04:44:05;10.70;99.90
4727;DHT22;2377;51.734;8.950;2023-04-24T04:46:34;10.60;99.90
4727;DHT22;2377;51.734;8.950;2023-04-24T04:49:04;10.60;99.90
4727;DHT22;2377;51.734;8.950;2023-04-24T04:51:31;10.40;99.90
4727;DHT22;2377;51.734;8.950;2023-04-24T04:53:58;10.30;99.90
4727;DHT22;2377;51.734;8.950;2023-04-24T04:56:25;10.10;99.90
4727;DHT22;2377;51.734;8.950;2023-04-24T04:58:52;10.10;99.90
4727;DHT22;2377;51.734;8.950;2023-04-24T05:01:19;10.10;99.90
4727;DHT22;2377;51.734;8.950;2023-04-24T05:03:46;10.10;99.90
4727;DHT22;2377;51.734;8.950;2023-04-24T05:06:15;10.10;99.90
4727;DHT22;2377;51.734;8.950;2023-04-24T05:08:42;10.10;99.90
4727;DHT22;2377;51.734;8.950;2023-04-24T05:11:09;10.10;99.90
4727;DHT22;2377;51.734;8.950;2023-04-24T05:13:36;10.10;99.90
4727;DHT22;2377;51.734;8.950;2023-04-24T05:16:03;10.10;99.90
4727;DHT22;2377;51.734;8.950;2023-04-24T05:18:30;10.10;99.90
4727;DHT22;2377;51.734;8.950;2023-04-24T05:20:57;10.10;99.90
4727;DHT22;2377;51.734;8.950;2023-04-24T05:23:25;10.00;99.90
4727;DHT22;2377;51.734;8.950;2023-04-24T05:25:52;10.00;99.90
4727;DHT22;2377;51.734;8.950;2023-04-24T05:28:19;10.00;99.90
4727;DHT22;2377;51.734;8.950;2023-04-24T05:30:46;10.00;99.90
4727;DHT22;2377;51.734;8.950;2023-04-24T05:33:13;10.00;98.80
4727;DHT22;2377;51.734;8.950;2023-04-24T05:35:40;10.00;95.20
4727;DHT22;2377;51.734;8.950;2023-04-24T05:38:11;10.00;99.90
4727;DHT22;2377;51.734;8.950;2023-04-24T05:40:39;9.90;99.90
4727;DHT22;2377;51.734;8.950;2023-04-24T05:43:06;9.80;99.90
4727;DHT22;2377;51.734;8.950;2023-04-24T05:45:33;9.80;75.00
4727;DHT22;2377;51.734;8.950;2023-04-24T05:48:01;9.80;40.40
4727;DHT22;2377;51.734;8.950;2023-04-24T05:50:28;9.60;64.20
4727;DHT22;2377;51.734;8.950;2023-04-24T05:52:55;9.60;35.40
4727;DHT22;2377;51.734;8.950;2023-04-24T05:55:23;9.60;30.60
4727;DHT22;2377;51.734;8.950;2023-04-24T05:57:52;9.60;27.40
4727;DHT22;2377;51.734;8.950;2023-04-24T06:00:19;9.60;19.50
4727;DHT22;2377;51.734;8.950;2023-04-24T06:02:46;9.60;19.10
4727;DHT22;2377;51.734;8.950;2023-04-24T06:05:13;9.60;19.20
4727;DHT22;2377;51.734;8.950;2023-04-24T06:07:40;9.60;25.80
4727;DHT22;2377;51.734;8.950;2023-04-24T06:10:08;9.60;15.70
4727;DHT22;2377;51.734;8.950;2023-04-24T06:12:36;9.60;22.70
4727;DHT22;2377;51.734;8.950;2023-04-24T06:15:05;9.60;22.10
4727;DHT22;2377;51.734;8.950;2023-04-24T06:17:33;9.70;17.60
4727;DHT22;2377;51.734;8.950;2023-04-24T06:20:00;9.80;15.60
4727;DHT22;2377;51.734;8.950;2023-04-24T06:22:29;9.90;18.70
4727;DHT22;2377;51.734;8.950;2023-04-24T06:24:56;9.90;16.00
4727;DHT22;2377;51.734;8.950;2023-04-24T06:27:22;10.00;12.30
4727;DHT22;2377;51.734;8.950;2023-04-24T06:29:49;10.10;16.20
4727;DHT22;2377;51.734;8.950;2023-04-24T06:32:21;10.30;5.70
4727;DHT22;2377;51.734;8.950;2023-04-24T06:34:49;10.50;1.00
4727;DHT22;2377;51.734;8.950;2023-04-24T06:37:18;10.60;1.00
4727;DHT22;2377;51.734;8.950;2023-04-24T06:39:46;10.60;1.00
4727;DHT22;2377;51.734;8.950;2023-04-24T06:42:13;10.80;4.50
4727;DHT22;2377;51.734;8.950;2023-04-24T06:44:39;10.80;1.00
4727;DHT22;2377;51.734;8.950;2023-04-24T06:47:07;10.80;1.00
4727;DHT22;2377;51.734;8.950;2023-04-24T06:49:36;10.90;1.00
4727;DHT22;2377;51.734;8.950;2023-04-24T06:52:04;11.00;1.00
4727;DHT22;2377;51.734;8.950;2023-04-24T06:54:31;10.90;1.00
4727;DHT22;2377;51.734;8.950;2023-04-24T06:56:59;10.90;1.00
4727;DHT22;2377;51.734;8.950;2023-04-24T06:59:27;10.80;1.00
4727;DHT22;2377;51.734;8.950;2023-04-24T07:01:55;10.80;1.00
4727;DHT22;2377;51.734;8.950;2023-04-24T07:04:23;10.70;1.00
4727;DHT22;2377;51.734;8.950;2023-04-24T07:06:52;10.50;1.00
4727;DHT22;2377;51.734;8.950;2023-04-24T07:09:21;10.50;1.00
4727;DHT22;2377;51.734;8.950;2023-04-24T07:11:49;10.30;1.00
4727;DHT22;2377;51.734;8.950;2023-04-24T07:14:16;10.20;1.00
4727;DHT22;2377;51.734;8.950;2023-04-24T07:16:44;10.30;1.00
4727;DHT22;2377;51.734;8.950;2023-04-24T07:19:12;10.20;1.00
4727;DHT22;2377;51.734;8.950;2023-04-24T07:21:40;10.20;1.00
4727;DHT22;2377;51.734;8.950;2023-04-24T07:24:08;10.20;1.00
4727;DHT22;2377;51.734;8.950;2023-04-24T07:26:37;10.00;1.00
4727;DHT22;2377;51.734;8.950;2023-04-24T07:29:04;10.00;1.00
4727;DHT22;2377;51.734;8.950;2023-04-24T07:31:31;10.00;1.00
4727;DHT22;2377;51.734;8.950;2023-04-24T07:33:58;10.00;1.00
4727;DHT22;2377;51.734;8.950;2023-04-24T07:36:25;10.00;1.00
4727;DHT22;2377;51.734;8.950;2023-04-24T07:38:54;10.10;1.00
4727;DHT22;2377;51.734;8.950;2023-04-24T07:41:22;10.10;1.00
4727;DHT22;2377;51.734;8.950;2023-04-24T07:43:49;10.20;1.00
4727;DHT22;2377;51.734;8.950;2023-04-24T07:46:16;10.10;1.00
4727;DHT22;2377;51.734;8.950;2023-04-24T07:48:43;10.10;1.00
4727;DHT22;2377;51.734;8.950;2023-04-24T07:51:11;10.30;1.00
4727;DHT22;2377;51.734;8.950;2023-04-24T07:53:39;10.40;1.00
4727;DHT22;2377;51.734;8.950;2023-04-24T07:56:06;10.60;1.00
4727;DHT22;2377;51.734;8.950;2023-04-24T07:58:34;10.80;1.00
4727;DHT22;2377;51.734;8.950;2023-04-24T08:01:01;10.90;1.00
4727;DHT22;2377;51.734;8.950;2023-04-24T08:03:28;11.00;1.00
4727;DHT22;2377;51.734;8.950;2023-04-24T08:05:55;11.00;1.00
4727;DHT22;2377;51.734;8.950;2023-04-24T08:08:22;11.00;1.00
4727;DHT22;2377;51.734;8.950;2023-04-24T08:10:49;11.00;1.00
4727;DHT22;2377;51.734;8.950;2023-04-24T08:13:16;11.20;1.00
4727;DHT22;2377;51.734;8.950;2023-04-24T08:15:45;11.30;1.00
4727;DHT22;2377;51.734;8.950;2023-04-24T08:18:12;11.20;1.00
4727;DHT22;2377;51.734;8.950;2023-04-24T08:20:39;11.20;1.00
4727;DHT22;2377;51.734;8.950;2023-04-24T08:23:06;11.10;1.00
4727;DHT22;2377;51.734;8.950;2023-04-24T08:25:33;11.10;1.00
4727;DHT22;2377;51.734;8.950;2023-04-24T08:28:02;11.00;1.00
4727;DHT22;2377;51.734;8.950;2023-04-24T08:30:29;10.90;1.00
4727;DHT22;2377;51.734;8.950;2023-04-24T08:32:57;10.80;1.00
4727;DHT22;2377;51.734;8.950;2023-04-24T08:35:24;10.90;1.00
4727;DHT22;2377;51.734;8.950;2023-04-24T08:37:52;10.90;1.00
4727;DHT22;2377;51.734;8.950;2023-04-24T08:40:25;10.90;1.00
4727;DHT22;2377;51.734;8.950;2023-04-24T08:42:55;10.80;1.00
4727;DHT22;2377;51.734;8.950;2023-04-24T08:45:23;10.80;1.00
4727;DHT22;2377;51.734;8.950;2023-04-24T08:47:52;10.80;1.00
4727;DHT22;2377;51.734;8.950;2023-04-24T08:50:21;10.80;1.00
4727;DHT22;2377;51.734;8.950;2023-04-24T08:52:50;10.80;1.00
4727;DHT22;2377;51.734;8.950;2023-04-24T08:55:19;10.60;1.00
4727;DHT22;2377;51.734;8.950;2023-04-24T08:57:50;10.70;1.00
4727;DHT22;2377;51.734;8.950;2023-04-24T09:00:20;10.50;1.00
4727;DHT22;2377;51.734;8.950;2023-04-24T09:02:49;10.50;1.00
4727;DHT22;2377;51.734;8.950;2023-04-24T09:05:17;10.50;1.00
4727;DHT22;2377;51.734;8.950;2023-04-24T09:07:53;10.40;1.00
4727;DHT22;2377;51.734;8.950;2023-04-24T09:10:23;10.50;1.00
4727;DHT22;2377;51.734;8.950;2023-04-24T09:12:51;10.60;1.00
4727;DHT22;2377;51.734;8.950;2023-04-24T09:15:18;10.70;1.00
4727;DHT22;2377;51.734;8.950;2023-04-24T09:17:46;10.80;1.00
4727;DHT22;2377;51.734;8.950;2023-04-24T09:20:14;10.90;1.00
4727;DHT22;2377;51.734;8.950;2023-04-24T09:22:42;10.80;1.00
4727;DHT22;2377;51.734;8.950;2023-04-24T09:25:11;10.80;1.00
4727;DHT22;2377;51.734;8.950;2023-04-24T09:27:42;10.70;1.00
4727;DHT22;2377;51.734;8.950;2023-04-24T09:30:11;10.60;1.00
4727;DHT22;2377;51.734;8.950;2023-04-24T09:32:40;10.60;1.00
4727;DHT22;2377;51.734;8.950;2023-04-24T09:35:08;10.60;1.00
4727;DHT22;2377;51.734;8.950;2023-04-24T09:37:38;10.60;1.00
4727;DHT22;2377;51.734;8.950;2023-04-24T09:40:15;10.60;1.00
4727;DHT22;2377;51.734;8.950;2023-04-24T09:42:44;10.60;1.00
4727;DHT22;2377;51.734;8.950;2023-04-24T09:45:12;10.60;1.00
4727;DHT22;2377;51.734;8.950;2023-04-24T09:47:40;10.60;1.00
4727;DHT22;2377;51.734;8.950;2023-04-24T09:50:13;10.80;1.00
4727;DHT22;2377;51.734;8.950;2023-04-24T09:52:45;10.70;1.00
4727;DHT22;2377;51.734;8.950;2023-04-24T09:55:18;10.80;1.00
4727;DHT22;2377;51.734;8.950;2023-04-24T09:57:50;10.70;1.00
4727;DHT22;2377;51.734;8.950;2023-04-24T10:00:21;10.60;1.00
4727;DHT22;2377;51.734;8.950;2023-04-24T10:02:54;10.60;1.00
4727;DHT22;2377;51.734;8.950;2023-04-24T10:05:28;10.60;1.00
4727;DHT22;2377;51.734;8.950;2023-04-24T10:07:57;10.60;1.00
4727;DHT22;2377;51.734;8.950;2023-04-24T10:10:28;10.60;1.00
4727;DHT22;2377;51.734;8.950;2023-04-24T10:12:56;10.60;1.00
4727;DHT22;2377;51.734;8.950;2023-04-24T10:15:24;10.60;1.00
4727;DHT22;2377;51.734;8.950;2023-04-24T10:17:53;10.70;1.00
4727;DHT22;2377;51.734;8.950;2023-04-24T10:20:22;10.80;1.00
4727;DHT22;2377;51.734;8.950;2023-04-24T10:22:51;10.90;1.00
4727;DHT22;2377;51.734;8.950;2023-04-24T10:25:21;10.90;1.00
4727;DHT22;2377;51.734;8.950;2023-04-24T10:27:53;10.80;1.00
4727;DHT22;2377;51.734;8.950;2023-04-24T10:30:23;10.80;1.00
4727;DHT22;2377;51.734;8.950;2023-04-24T10:32:50;10.80;1.00
4727;DHT22;2377;51.734;8.950;2023-04-24T10:35:17;10.80;1.00
4727;DHT22;2377;51.734;8.950;2023-04-24T10:37:50;10.80;1.00
4727;DHT22;2377;51.734;8.950;2023-04-24T10:40:26;10.70;1.00
4727;DHT22;2377;51.734;8.950;2023-04-24T10:42:56;10.50;1.00
4727;DHT22;2377;51.734;8.950;2023-04-24T10:45:24;10.30;1.00
4727;DHT22;2377;51.734;8.950;2023-04-24T10:47:52;10.10;1.00
4727;DHT22;2377;51.734;8.950;2023-04-24T10:50:22;10.00;6.80
4727;DHT22;2377;51.734;8.950;2023-04-24T10:52:50;9.70;10.10
4727;DHT22;2377;51.734;8.950;2023-04-24T10:55:40;9.50;9.50
4727;DHT22;2377;51.734;8.950;2023-04-24T10:58:10;9.50;16.50
4727;DHT22;2377;51.734;8.950;2023-04-24T11:00:38;9.70;6.60
4727;DHT22;2377;51.734;8.950;2023-04-24T11:03:06;9.80;3.00
4727;DHT22;2377;51.734;8.950;2023-04-24T11:05:51;9.70;10.00
4727;DHT22;2377;51.734;8.950;2023-04-24T11:08:28;9.60;8.70
4727;DHT22;2377;51.734;8.950;2023-04-24T11:10:58;9.50;8.70
4727;DHT22;2377;51.734;8.950;2023-04-24T11:16:44;9.50;10.00
4727;DHT22;2377;51.734;8.950;2023-04-24T11:19:20;9.50;23.10
4727;DHT22;2377;51.734;8.950;2023-04-24T11:21:55;9.30;15.50
4727;DHT22;2377;51.734;8.950;2023-04-24T11:24:38;9.30;9.90
4727;DHT22;2377;51.734;8.950;2023-04-24T11:27:11;9.30;7.10
4727;DHT22;2377;51.734;8.950;2023-04-24T11:29:47;9.20;8.90
4727;DHT22;2377;51.734;8.950;2023-04-24T11:32:23;9.20;12.90
4727;DHT22;2377;51.734;8.950;2023-04-24T11:34:53;9.10;14.60
4727;DHT22;2377;51.734;8.950;2023-04-24T11:37:22;9.10;17.20
4727;DHT22;2377;51.734;8.950;2023-04-24T11:39:53;9.10;26.20
4727;DHT22;2377;51.734;8.950;2023-04-24T11:42:22;9.10;51.10
4727;DHT22;2377;51.734;8.950;2023-04-24T11:44:53;9.00;68.90
4727;DHT22;2377;51.734;8.950;2023-04-24T11:47:28;9.00;63.00
4727;DHT22;2377;51.734;8.950;2023-04-24T11:49:56;9.10;82.20
4727;DHT22;2377;51.734;8.950;2023-04-24T11:52:23;9.10;99.90
4727;DHT22;2377;51.734;8.950;2023-04-24T11:54:50;9.10;99.90
4727;DHT22;2377;51.734;8.950;2023-04-24T11:57:19;9.10;99.90
4727;DHT22;2377;51.734;8.950;2023-04-24T11:59:47;9.10;99.90
4727;DHT22;2377;51.734;8.950;2023-04-24T12:02:22;9.20;99.90
4727;DHT22;2377;51.734;8.950;2023-04-24T12:04:49;9.20;99.90
4727;DHT22;2377;51.734;8.950;2023-04-24T12:07:16;9.10;99.90
4727;DHT22;2377;51.734;8.950;2023-04-24T12:09:44;9.10;99.90
4727;DHT22;2377;51.734;8.950;2023-04-24T12:12:15;9.10;99.90
4727;DHT22;2377;51.734;8.950;2023-04-24T12:14:44;9.00;99.90
4727;DHT22;2377;51.734;8.950;2023-04-24T12:17:13;9.00;99.90
4727;DHT22;2377;51.734;8.950;2023-04-24T12:19:46;9.00;99.90
4727;DHT22;2377;51.734;8.950;2023-04-24T12:22:14;9.10;99.90
4727;DHT22;2377;51.734;8.950;2023-04-24T12:24:56;9.10;99.90
4727;DHT22;2377;51.734;8.950;2023-04-24T12:27:24;9.10;99.90
4727;DHT22;2377;51.734;8.950;2023-04-24T12:29:53;9.00;99.90
4727;DHT22;2377;51.734;8.950;2023-04-24T12:32:21;8.80;99.90
4727;DHT22;2377;51.734;8.950;2023-04-24T12:34:51;8.80;99.90
4727;DHT22;2377;51.734;8.950;2023-04-24T12:37:18;8.70;99.90
4727;DHT22;2377;51.734;8.950;2023-04-24T12:39:58;8.60;99.90
4727;DHT22;2377;51.734;8.950;2023-04-24T12:42:27;8.60;99.90
4727;DHT22;2377;51.734;8.950;2023-04-24T12:44:57;8.60;99.90
4727;DHT22;2377;51.734;8.950;2023-04-24T12:47:25;8.50;99.90
4727;DHT22;2377;51.734;8.950;2023-04-24T12:49:54;8.60;99.90
4727;DHT22;2377;51.734;8.950;2023-04-24T12:52:21;8.60;99.90
4727;DHT22;2377;51.734;8.950;2023-04-24T12:54:49;8.80;99.90
4727;DHT22;2377;51.734;8.950;2023-04-24T12:57:17;8.70;99.90
4727;DHT22;2377;51.734;8.950;2023-04-24T12:59:44;8.80;99.90
4727;DHT22;2377;51.734;8.950;2023-04-24T13:02:11;8.60;99.90
4727;DHT22;2377;51.734;8.950;2023-04-24T13:04:38;8.50;99.90
4727;DHT22;2377;51.734;8.950;2023-04-24T13:07:06;8.50;99.90
4727;DHT22;2377;51.734;8.950;2023-04-24T13:09:34;8.50;99.90
4727;DHT22;2377;51.734;8.950;2023-04-24T13:12:02;8.50;99.90
4727;DHT22;2377;51.734;8.950;2023-04-24T13:14:30;8.50;99.90
4727;DHT22;2377;51.734;8.950;2023-04-24T13:16:57;8.50;99.90
4727;DHT22;2377;51.734;8.950;2023-04-24T13:19:25;8.50;99.90
4727;DHT22;2377;51.734;8.950;2023-04-24T13:21:53;8.30;99.90
4727;DHT22;2377;51.734;8.950;2023-04-24T13:24:23;8.30;99.90
4727;DHT22;2377;51.734;8.950;2023-04-24T13:26:53;8.30;99.90
4727;DHT22;2377;51.734;8.950;2023-04-24T13:29:20;8.20;99.90
4727;DHT22;2377;51.734;8.950;2023-04-24T13:31:47;8.10;99.90
4727;DHT22;2377;51.734;8.950;2023-04-24T13:34:14;8.20;99.90
4727;DHT22;2377;51.734;8.950;2023-04-24T13:36:41;8.20;99.90
4727;DHT22;2377;51.734;8.950;2023-04-24T13:39:09;8.30;99.90
4727;DHT22;2377;51.734;8.950;2023-04-24T13:41:37;8.30;99.90
4727;DHT22;2377;51.734;8.950;2023-04-24T13:44:05;8.30;99.90
4727;DHT22;2377;51.734;8.950;2023-04-24T13:46:32;8.40;99.90
4727;DHT22;2377;51.734;8.950;2023-04-24T13:48:59;8.40;99.90
4727;DHT22;2377;51.734;8.950;2023-04-24T13:51:29;8.50;99.90
4727;DHT22;2377;51.734;8.950;2023-04-24T13:53:56;8.50;99.90
4727;DHT22;2377;51.734;8.950;2023-04-24T13:56:23;8.50;99.90
4727;DHT22;2377;51.734;8.950;2023-04-24T13:58:52;8.50;99.90
4727;DHT22;2377;51.734;8.950;2023-04-24T14:01:19;8.60;99.90
4727;DHT22;2377;51.734;8.950;2023-04-24T14:03:49;8.70;99.90
4727;DHT22;2377;51.734;8.950;2023-04-24T14:06:16;8.70;99.90
4727;DHT22;2377;51.734;8.950;2023-04-24T14:08:43;8.70;99.90
4727;DHT22;2377;51.734;8.950;2023-04-24T14:11:10;8.60;99.90
4727;DHT22;2377;51.734;8.950;2023-04-24T14:13:38;8.60;99.90
4727;DHT22;2377;51.734;8.950;2023-04-24T14:16:08;8.60;99.90
4727;DHT22;2377;51.734;8.950;2023-04-24T14:18:36;8.50;99.90
4727;DHT22;2377;51.734;8.950;2023-04-24T14:21:03;8.50;99.90
4727;DHT22;2377;51.734;8.950;2023-04-24T14:23:30;8.60;99.90
4727;DHT22;2377;51.734;8.950;2023-04-24T14:25:58;8.60;99.90
4727;DHT22;2377;51.734;8.950;2023-04-24T14:28:25;8.60;99.90
4727;DHT22;2377;51.734;8.950;2023-04-24T14:30:53;8.60;99.90
4727;DHT22;2377;51.734;8.950;2023-04-24T14:33:21;8.60;99.90
4727;DHT22;2377;51.734;8.950;2023-04-24T14:35:48;8.60;99.90
4727;DHT22;2377;51.734;8.950;2023-04-24T14:38:15;8.60;99.90
4727;DHT22;2377;51.734;8.950;2023-04-24T14:40:42;8.50;99.90
4727;DHT22;2377;51.734;8.950;2023-04-24T14:43:09;8.50;99.90
4727;DHT22;2377;51.734;8.950;2023-04-24T14:45:37;8.50;99.90
4727;DHT22;2377;51.734;8.950;2023-04-24T14:48:05;8.50;99.90
4727;DHT22;2377;51.734;8.950;2023-04-24T14:50:35;8.50;99.90
4727;DHT22;2377;51.734;8.950;2023-04-24T14:53:02;8.50;99.90
4727;DHT22;2377;51.734;8.950;2023-04-24T14:55:29;8.50;99.90
4727;DHT22;2377;51.734;8.950;2023-04-24T14:57:57;8.50;99.90
4727;DHT22;2377;51.734;8.950;2023-04-24T15:00:24;8.60;99.90
4727;DHT22;2377;51.734;8.950;2023-04-24T15:02:51;8.60;99.90
4727;DHT22;2377;51.734;8.950;2023-04-24T15:05:18;8.50;99.90
4727;DHT22;2377;51.734;8.950;2023-04-24T15:07:46;8.60;99.90
4727;DHT22;2377;51.734;8.950;2023-04-24T15:10:13;8.50;99.90
4727;DHT22;2377;51.734;8.950;2023-04-24T15:12:40;8.60;99.90
4727;DHT22;2377;51.734;8.950;2023-04-24T15:15:08;8.50;99.90
4727;DHT22;2377;51.734;8.950;2023-04-24T15:17:35;8.50;99.90
4727;DHT22;2377;51.734;8.950;2023-04-24T15:20:03;8.50;99.90
4727;DHT22;2377;51.734;8.950;2023-04-24T15:22:31;8.50;99.90
4727;DHT22;2377;51.734;8.950;2023-04-24T15:25:00;8.60;99.90
4727;DHT22;2377;51.734;8.950;2023-04-24T15:27:38;8.60;99.90
4727;DHT22;2377;51.734;8.950;2023-04-24T15:30:08;8.60;99.90
4727;DHT22;2377;51.734;8.950;2023-04-24T15:32:36;8.50;99.90
4727;DHT22;2377;51.734;8.950;2023-04-24T15:35:03;8.50;99.90
4727;DHT22;2377;51.734;8.950;2023-04-24T15:37:31;8.50;99.90
4727;DHT22;2377;51.734;8.950;2023-04-24T15:39:59;8.50;99.90
4727;DHT22;2377;51.734;8.950;2023-04-24T15:42:26;8.50;99.90
4727;DHT22;2377;51.734;8.950;2023-04-24T15:44:53;8.50;99.90
4727;DHT22;2377;51.734;8.950;2023-04-24T15:47:20;8.50;99.90
4727;DHT22;2377;51.734;8.950;2023-04-24T15:49:47;8.50;99.90
4727;DHT22;2377;51.734;8.950;2023-04-24T15:52:14;8.50;99.90
4727;DHT22;2377;51.734;8.950;2023-04-24T15:54:40;8.50;99.90
4727;DHT22;2377;51.734;8.950;2023-04-24T15:57:09;8.50;99.90
4727;DHT22;2377;51.734;8.950;2023-04-24T15:59:37;8.50;99.90
4727;DHT22;2377;51.734;8.950;2023-04-24T16:02:04;8.50;99.90
4727;DHT22;2377;51.734;8.950;2023-04-24T16:04:31;8.50;99.90
4727;DHT22;2377;51.734;8.950;2023-04-24T16:06:59;8.50;99.90
4727;DHT22;2377;51.734;8.950;2023-04-24T16:09:27;8.50;99.90
4727;DHT22;2377;51.734;8.950;2023-04-24T16:11:54;8.50;99.90
4727;DHT22;2377;51.734;8.950;2023-04-24T16:14:23;8.50;99.90
4727;DHT22;2377;51.734;8.950;2023-04-24T16:16:51;8.60;99.90
4727;DHT22;2377;51.734;8.950;2023-04-24T16:19:19;8.50;99.90
4727;DHT22;2377;51.734;8.950;2023-04-24T16:21:46;8.50;99.90
4727;DHT22;2377;51.734;8.950;2023-04-24T16:24:13;8.50;99.90